createdAt,value
2022-12-22T00:02:16.381Z,-5.3
2022-12-22T00:07:14.512Z,-5.3
2022-12-22T00:12:12.788Z,-5.5
2022-12-22T00:17:11.185Z,-5.6
2022-12-22T00:22:09.488Z,-5.7
2022-12-22T00:27:07.897Z,-5.7
2022-12-22T00:32:06.264Z,-5.6
2022-12-22T00:37:04.979Z,-5.6
2022-12-22T00:42:03.369Z,-5.7
2022-12-22T00:47:01.675Z,-5.6
2022-12-22T00:52:00.322Z,-5.5
2022-12-22T00:56:58.528Z,-5.7
2022-12-22T01:01:56.892Z,-5.8
2022-12-22T01:06:54.972Z,-5.8
2022-12-22T01:11:53.168Z,-5.9
2022-12-22T01:16:51.439Z,-5.9
2022-12-22T01:21:49.793Z,-5.9
2022-12-22T01:26:48.149Z,-5.9
2022-12-22T01:31:45.869Z,-5.9
2022-12-22T01:36:44.155Z,-5.9
2022-12-22T01:41:42.485Z,-5.9
2022-12-22T01:46:49.561Z,-5.8
2022-12-22T01:51:46.313Z,-5.9
2022-12-22T01:56:44.721Z,-5.9
2022-12-22T02:01:43.297Z,-5.8
2022-12-22T02:06:58.050Z,-5.8
2022-12-22T02:11:48.559Z,-6
2022-12-22T02:16:46.771Z,-6.1
2022-12-22T02:21:45.199Z,-6.1
2022-12-22T02:26:43.443Z,-6.1
2022-12-22T02:31:41.736Z,-6.2
2022-12-22T02:36:40.038Z,-6.2
2022-12-22T02:41:38.459Z,-6.3
2022-12-22T02:46:36.538Z,-6.3
2022-12-22T02:51:34.782Z,-6.4
2022-12-22T02:56:33.156Z,-6.4
2022-12-22T03:01:31.449Z,-6.3
2022-12-22T03:06:29.564Z,-6.3
2022-12-22T03:11:27.808Z,-6.3
2022-12-22T03:16:26.102Z,-6.3
2022-12-22T03:21:24.446Z,-6.2
2022-12-22T03:26:22.762Z,-6.3
2022-12-22T03:31:21.000Z,-6.4
2022-12-22T03:36:19.223Z,-6.4
2022-12-22T03:41:17.462Z,-6.4
2022-12-22T03:46:15.883Z,-6.3
2022-12-22T03:51:14.442Z,-6.4
2022-12-22T03:56:12.809Z,-6.5
2022-12-22T04:01:11.430Z,-6.6
2022-12-22T04:06:09.672Z,-6.5
2022-12-22T04:11:08.212Z,-6.6
2022-12-22T04:16:06.545Z,-6.5
2022-12-22T04:21:05.290Z,-6.4
2022-12-22T04:26:03.524Z,-6.4
2022-12-22T04:31:01.976Z,-6.4
2022-12-22T04:36:00.525Z,-6.5
2022-12-22T04:40:58.963Z,-6.6
2022-12-22T04:45:57.431Z,-6.6
2022-12-22T04:50:56.137Z,-6.6
2022-12-22T04:55:54.589Z,-6.7
2022-12-22T05:00:53.085Z,-6.7
2022-12-22T05:05:51.558Z,-6.7
2022-12-22T05:10:49.998Z,-6.6
2022-12-22T05:15:48.207Z,-6.8
2022-12-22T05:20:46.404Z,-6.8
2022-12-22T05:25:44.577Z,-6.8
2022-12-22T05:30:42.880Z,-6.9
2022-12-22T05:35:41.210Z,-6.9
2022-12-22T05:40:39.504Z,-6.8
2022-12-22T05:45:37.968Z,-6.9
2022-12-22T05:50:36.462Z,-6.7
2022-12-22T05:55:34.944Z,-6.5
2022-12-22T06:00:33.259Z,-6.4
2022-12-22T06:05:31.584Z,-6.2
2022-12-22T06:10:30.113Z,-6
2022-12-22T06:15:28.717Z,-5.7
2022-12-22T06:20:27.318Z,-5.5
2022-12-22T06:25:25.711Z,-5.3
2022-12-22T06:30:27.497Z,-5.2
2022-12-22T06:35:21.572Z,-5
2022-12-22T06:40:20.038Z,-4.8
2022-12-22T06:45:18.275Z,-4.8
2022-12-22T06:50:16.843Z,-4.6
2022-12-22T06:55:15.144Z,-4.4
2022-12-22T07:00:13.574Z,-4.3
2022-12-22T07:05:12.699Z,-2.1
2022-12-22T07:10:17.185Z,3.6
2022-12-22T07:15:20.493Z,7.7
2022-12-22T07:20:21.305Z,9.1
2022-12-22T07:25:20.807Z,10.6
2022-12-22T07:30:20.254Z,11.5
2022-12-22T07:35:19.170Z,11.9
2022-12-22T07:40:18.363Z,12.9
2022-12-22T07:45:17.294Z,13.3
2022-12-22T07:50:17.201Z,14.5
2022-12-22T07:55:16.925Z,15.2
2022-12-22T08:00:15.601Z,15
2022-12-22T08:05:14.689Z,15.8
2022-12-22T08:10:14.132Z,16.1
2022-12-22T08:15:12.943Z,16.7
2022-12-22T08:20:11.463Z,17.1
2022-12-22T08:25:10.077Z,17.1
2022-12-22T08:30:08.903Z,17.3
2022-12-22T08:35:08.120Z,18.5
2022-12-22T08:40:06.977Z,18
2022-12-22T08:45:05.395Z,17.5
2022-12-22T08:50:03.955Z,18.3
2022-12-22T08:55:03.124Z,19.5
2022-12-22T09:00:01.964Z,18.9
2022-12-22T09:05:00.124Z,19.4
2022-12-22T09:09:59.289Z,19.9
2022-12-22T09:14:57.246Z,19.1
2022-12-22T09:19:55.085Z,19.1
2022-12-22T09:24:53.879Z,19.5
2022-12-22T09:29:52.238Z,19.5
2022-12-22T09:34:50.719Z,19.8
2022-12-22T09:39:49.304Z,20
2022-12-22T09:44:47.778Z,20.3
2022-12-22T09:49:46.444Z,20.5
2022-12-22T09:54:44.155Z,20.4
2022-12-22T09:59:42.718Z,20.9
2022-12-22T10:04:41.345Z,21.2
2022-12-22T10:09:49.970Z,20.9
2022-12-22T10:14:37.761Z,20.9
2022-12-22T10:19:36.619Z,21.7
2022-12-22T10:24:35.808Z,21.6
2022-12-22T10:29:33.821Z,21.4
2022-12-22T10:34:32.279Z,21.9
2022-12-22T10:39:39.059Z,21.1
2022-12-22T10:44:35.083Z,20.6
2022-12-22T10:49:33.132Z,20.3
2022-12-22T10:54:30.716Z,19.9
2022-12-22T10:59:28.436Z,19
2022-12-22T11:04:26.039Z,17.8
2022-12-22T11:09:33.440Z,17.4
2022-12-22T11:14:19.846Z,15.7
2022-12-22T11:19:17.433Z,14.8
2022-12-22T11:24:14.762Z,14.1
2022-12-22T11:29:11.705Z,13
2022-12-22T11:34:21.169Z,12.3
2022-12-22T11:39:14.219Z,11.8
2022-12-22T11:44:12.144Z,11.5
2022-12-22T11:49:10.151Z,11.2
2022-12-22T11:54:10.995Z,11
2022-12-22T11:59:06.344Z,10.8
2022-12-22T12:04:04.422Z,10.4
2022-12-22T12:09:02.477Z,10.2
2022-12-22T12:14:00.658Z,10.2
2022-12-22T12:18:58.891Z,9.9
2022-12-22T12:23:58.347Z,9.7
2022-12-22T12:28:55.943Z,9
2022-12-22T12:33:54.058Z,8.8
2022-12-22T12:39:08.974Z,8.8
2022-12-22T12:43:50.630Z,8.4
2022-12-22T12:48:48.721Z,8.2
2022-12-22T12:53:46.568Z,7.4
2022-12-22T12:58:44.719Z,6.9
2022-12-22T13:08:40.905Z,6.3
2022-12-22T13:13:39.041Z,5.9
2022-12-22T13:18:37.278Z,5.8
2022-12-22T13:23:51.299Z,5.7
2022-12-22T13:28:33.996Z,5.3
2022-12-22T13:33:32.426Z,5.2
2022-12-22T13:38:30.457Z,5.2
2022-12-22T13:43:28.757Z,4.8
2022-12-22T13:48:27.589Z,4.7
2022-12-22T13:53:58.515Z,4.3
2022-12-22T13:58:24.207Z,4.3
2022-12-22T14:03:49.938Z,4
2022-12-22T14:08:20.452Z,3.7
2022-12-22T14:13:18.392Z,3.2
2022-12-22T14:18:16.632Z,2.9
2022-12-22T14:23:14.732Z,2.7
2022-12-22T14:28:12.819Z,2.2
2022-12-22T14:33:10.884Z,2
2022-12-22T14:38:08.754Z,1.4
2022-12-22T14:43:05.934Z,1.1
2022-12-22T14:48:03.832Z,0.7
2022-12-22T14:53:01.778Z,0.5
2022-12-22T14:57:59.800Z,0.1
2022-12-22T15:02:58.821Z,-0.2
2022-12-22T15:08:06.441Z,-0.3
2022-12-22T15:12:54.766Z,-0.6
2022-12-22T15:17:52.936Z,-0.8
2022-12-22T15:22:51.169Z,-0.9
2022-12-22T15:27:49.549Z,-0.9
2022-12-22T15:32:47.809Z,-1.1
2022-12-22T15:37:46.109Z,-1.2
2022-12-22T15:42:44.366Z,-1.3
2022-12-22T15:47:42.420Z,-1.5
2022-12-22T15:52:40.673Z,-1.5
2022-12-22T15:57:39.059Z,-1.6
2022-12-22T16:02:37.427Z,-1.7
2022-12-22T16:07:35.718Z,-1.7
2022-12-22T16:12:34.173Z,-1.7
2022-12-22T16:17:32.644Z,-1.8
2022-12-22T16:22:31.035Z,-1.8
2022-12-22T16:27:29.596Z,-1.9
2022-12-22T16:32:28.090Z,-1.9
2022-12-22T16:37:26.464Z,-1.9
2022-12-22T16:47:31.340Z,-2
2022-12-22T16:52:29.392Z,-2
2022-12-22T16:57:27.409Z,-2
2022-12-22T17:02:25.917Z,-2.1
2022-12-22T17:07:24.030Z,-2.1
2022-12-22T17:12:22.210Z,-2.2
2022-12-22T17:17:21.980Z,-2.3
2022-12-22T17:22:18.586Z,-2.3
2022-12-22T17:27:17.622Z,-2.2
2022-12-22T17:32:15.705Z,-2.3
2022-12-22T17:37:13.749Z,-2.3
2022-12-22T17:42:11.085Z,-2.4
2022-12-22T17:47:09.252Z,-2.4
2022-12-22T17:52:07.347Z,-2.5
2022-12-22T17:57:05.471Z,-2.5
2022-12-22T18:02:03.879Z,-2.5
2022-12-22T18:07:02.226Z,-2.5
2022-12-22T18:12:00.902Z,-2.6
2022-12-22T18:16:59.974Z,-2.6
2022-12-22T18:21:58.388Z,-2.6
2022-12-22T18:26:56.970Z,-2.7
2022-12-22T18:31:55.413Z,-2.7
2022-12-22T18:36:53.735Z,-2.7
2022-12-22T18:41:51.909Z,-2.8
2022-12-22T18:46:50.222Z,-2.8
2022-12-22T18:51:48.798Z,-2.8
2022-12-22T18:56:50.516Z,-2.7
2022-12-22T19:01:48.434Z,-2.8
2022-12-22T19:06:46.427Z,-2.8
2022-12-22T19:11:44.980Z,-2.8
2022-12-22T19:16:43.775Z,-2.7
2022-12-22T19:21:42.045Z,-2.6
2022-12-22T19:26:40.462Z,-2.7
2022-12-22T19:31:38.968Z,-2.8
2022-12-22T19:36:37.159Z,-2.9
2022-12-22T19:41:35.525Z,-2.9
2022-12-22T19:46:33.935Z,-2.9
2022-12-22T19:51:32.103Z,-3
2022-12-22T19:56:30.407Z,-3
2022-12-22T20:01:28.990Z,-3
2022-12-22T20:06:27.193Z,-2.9
2022-12-22T20:11:25.350Z,-2.9
2022-12-22T20:16:23.808Z,-2.9
2022-12-22T20:21:22.302Z,-2.9
2022-12-22T20:26:20.831Z,-2.9
2022-12-22T20:31:19.298Z,-2.9
2022-12-22T20:36:17.577Z,-2.8
2022-12-22T20:41:16.045Z,-2.8
2022-12-22T20:46:14.666Z,-2.9
2022-12-22T20:51:12.903Z,-2.8
2022-12-22T20:56:11.189Z,-2.8
2022-12-22T21:01:09.609Z,-2.8
2022-12-22T21:06:08.132Z,-2.8
2022-12-22T21:11:06.555Z,-2.8
2022-12-22T21:16:04.800Z,-2.8
2022-12-22T21:21:02.732Z,-2.9
2022-12-22T21:26:01.072Z,-2.7
2022-12-22T21:30:59.524Z,-2.5
2022-12-22T21:35:57.984Z,-2.4
2022-12-22T21:40:56.500Z,-2.3
2022-12-22T21:45:54.809Z,-2.3
2022-12-22T21:50:53.127Z,-2.3
2022-12-22T21:55:51.399Z,-2.2
2022-12-22T22:00:49.720Z,-2
2022-12-22T22:05:48.101Z,-2
2022-12-22T22:10:46.698Z,-1.9
2022-12-22T22:15:45.036Z,-1.9
2022-12-22T22:20:43.405Z,-2
2022-12-22T22:25:41.482Z,-2
2022-12-22T22:30:39.738Z,-2.1
2022-12-22T22:35:37.920Z,-2.2
2022-12-22T22:40:36.165Z,-2.3
2022-12-22T22:45:34.538Z,-2.3
2022-12-22T22:50:32.773Z,-2.3
2022-12-22T22:55:31.186Z,-2.5
2022-12-22T23:00:29.221Z,-2.5
2022-12-22T23:05:27.376Z,-2.5
2022-12-22T23:10:25.542Z,-2.5
2022-12-22T23:15:23.685Z,-2.5
2022-12-22T23:20:21.784Z,-2.6
2022-12-22T23:25:19.770Z,-2.8
2022-12-22T23:30:18.055Z,-3
2022-12-22T23:35:16.262Z,-3
2022-12-22T23:40:50.218Z,-3.1
2022-12-22T23:45:13.045Z,-3.1
2022-12-22T23:50:11.345Z,-3.1
2022-12-22T23:55:09.655Z,-3.1
